createdAt,value
2018-10-07T00:01:02.807Z,95392.28
2018-10-07T00:03:31.621Z,95388.25
2018-10-07T00:06:00.416Z,95388.80
2018-10-07T00:08:29.568Z,95381.20
2018-10-07T00:10:58.393Z,95381.94
2018-10-07T00:13:27.288Z,95386.91
2018-10-07T00:15:56.150Z,95374.78
2018-10-07T00:18:24.923Z,95372.75
2018-10-07T00:20:53.708Z,95361.02
2018-10-07T00:23:22.552Z,95357.95
2018-10-07T00:25:51.331Z,95358.54
2018-10-07T00:28:20.143Z,95356.02
2018-10-07T00:30:49.052Z,95355.60
2018-10-07T00:33:17.822Z,95349.41
2018-10-07T00:35:46.670Z,95338.59
2018-10-07T00:38:15.417Z,95340.04
2018-10-07T00:40:44.183Z,95329.50
2018-10-07T00:43:13.020Z,95323.67
2018-10-07T00:45:41.811Z,95322.49
2018-10-07T00:48:10.717Z,95322.81
2018-10-07T00:50:39.505Z,95314.39
2018-10-07T00:53:08.329Z,95315.94
2018-10-07T00:55:37.119Z,95320.27
2018-10-07T00:58:06.311Z,95315.08
2018-10-07T01:00:35.189Z,95313.04
2018-10-07T01:03:03.986Z,95316.34
2018-10-07T01:05:32.801Z,95318.84
2018-10-07T01:08:01.612Z,95314.91
2018-10-07T01:10:30.417Z,95311.96
2018-10-07T01:12:59.227Z,95316.71
2018-10-07T01:15:28.016Z,95316.89
2018-10-07T01:17:56.811Z,95316.89
2018-10-07T01:20:25.653Z,95321.33
2018-10-07T01:22:54.424Z,95312.33
2018-10-07T01:25:23.232Z,95306.09
2018-10-07T01:27:52.001Z,95300.53
2018-10-07T01:30:22.884Z,95302.42
2018-10-07T01:32:53.584Z,95302.47
2018-10-07T01:35:22.384Z,95297.98
2018-10-07T01:37:51.322Z,95295.67
2018-10-07T01:40:20.531Z,95296.49
2018-10-07T01:42:49.397Z,95294.60
2018-10-07T01:45:18.285Z,95298.53
2018-10-07T01:47:47.217Z,95298.98
2018-10-07T01:50:16.073Z,95292.61
2018-10-07T01:52:44.865Z,95292.92
2018-10-07T01:55:13.652Z,95290.98
2018-10-07T01:57:42.569Z,95289.75
2018-10-07T02:00:11.457Z,95288.36
2018-10-07T02:02:40.287Z,95289.12
2018-10-07T02:05:09.143Z,95295.36
2018-10-07T02:07:38.132Z,95288.38
2018-10-07T02:10:06.976Z,95283.45
2018-10-07T02:12:35.756Z,95282.32
2018-10-07T02:15:04.672Z,95286.93
2018-10-07T02:17:33.509Z,95282.36
2018-10-07T02:20:02.327Z,95285.48
2018-10-07T02:22:31.125Z,95283.26
2018-10-07T02:24:59.993Z,95275.75
2018-10-07T02:27:28.785Z,95273.63
2018-10-07T02:29:57.614Z,95269.56
2018-10-07T02:32:26.404Z,95270.00
2018-10-07T02:34:55.239Z,95271.67
2018-10-07T02:37:24.052Z,95270.05
2018-10-07T02:39:52.869Z,95268.78
2018-10-07T02:42:21.708Z,95274.17
2018-10-07T02:44:50.519Z,95276.91
2018-10-07T02:47:19.772Z,95271.56
2018-10-07T02:49:48.668Z,95274.85
2018-10-07T02:52:22.637Z,95271.98
2018-10-07T02:54:51.549Z,95269.36
2018-10-07T02:57:20.478Z,95267.27
2018-10-07T02:59:49.968Z,95271.52
2018-10-07T03:02:18.861Z,95269.19
2018-10-07T03:04:47.753Z,95275.48
2018-10-07T03:07:16.662Z,95268.20
2018-10-07T03:09:45.864Z,95266.39
2018-10-07T03:12:14.660Z,95267.59
2018-10-07T03:14:43.442Z,95271.52
2018-10-07T03:17:12.276Z,95265.44
2018-10-07T03:19:41.106Z,95263.52
2018-10-07T03:22:09.961Z,95258.01
2018-10-07T03:24:38.731Z,95261.09
2018-10-07T03:27:07.532Z,95255.78
2018-10-07T03:29:36.455Z,95253.52
2018-10-07T03:32:05.469Z,95257.58
2018-10-07T03:34:34.321Z,95258.72
2018-10-07T03:37:03.205Z,95256.95
2018-10-07T03:39:32.011Z,95259.73
2018-10-07T03:42:00.751Z,95253.87
2018-10-07T03:44:29.568Z,95249.12
2018-10-07T03:46:58.360Z,95255.67
2018-10-07T03:49:27.140Z,95248.14
2018-10-07T03:51:56.332Z,95255.17
2018-10-07T03:54:25.132Z,95246.12
2018-10-07T03:56:54.005Z,95250.28
2018-10-07T03:59:22.942Z,95250.88
2018-10-07T04:01:51.840Z,95253.53
2018-10-07T04:04:20.688Z,95254.52
2018-10-07T04:06:49.689Z,95251.27
2018-10-07T04:09:18.484Z,95248.64
2018-10-07T04:11:47.297Z,95252.08
2018-10-07T04:14:16.101Z,95247.57
2018-10-07T04:16:45.752Z,95249.84
2018-10-07T04:19:14.514Z,95245.82
2018-10-07T04:21:51.681Z,95241.34
2018-10-07T04:24:20.532Z,95238.47
2018-10-07T04:26:49.408Z,95245.18
2018-10-07T04:29:18.204Z,95242.98
2018-10-07T04:31:47.020Z,95246.13
2018-10-07T04:34:15.841Z,95246.82
2018-10-07T04:36:44.617Z,95247.92
2018-10-07T04:39:14.028Z,95254.17
2018-10-07T04:41:43.622Z,95254.17
2018-10-07T04:44:12.513Z,95252.86
2018-10-07T04:46:41.556Z,95256.23
2018-10-07T04:49:10.411Z,95251.23
2018-10-07T04:51:39.223Z,95252.58
2018-10-07T04:54:08.060Z,95256.47
2018-10-07T04:56:36.892Z,95259.66
2018-10-07T04:59:05.687Z,95262.75
2018-10-07T05:01:34.505Z,95264.87
2018-10-07T05:04:03.324Z,95264.87
2018-10-07T05:06:34.519Z,95267.59
2018-10-07T05:09:06.520Z,95268.37
2018-10-07T05:11:35.422Z,95273.64
2018-10-07T05:14:06.133Z,95267.56
2018-10-07T05:16:46.207Z,95265.77
2018-10-07T05:19:15.104Z,95260.44
2018-10-07T05:21:44.035Z,95262.63
2018-10-07T05:24:12.876Z,95260.16
2018-10-07T05:26:41.772Z,95261.19
2018-10-07T05:29:10.716Z,95266.95
2018-10-07T05:31:39.571Z,95264.27
2018-10-07T05:34:08.357Z,95264.41
2018-10-07T05:36:37.186Z,95269.11
2018-10-07T05:39:08.371Z,95270.42
2018-10-07T05:41:37.359Z,95265.10
2018-10-07T05:44:06.211Z,95262.59
2018-10-07T05:46:35.041Z,95254.23
2018-10-07T05:49:03.933Z,95260.83
2018-10-07T05:51:32.769Z,95260.17
2018-10-07T05:54:01.592Z,95257.28
2018-10-07T05:56:30.519Z,95255.34
2018-10-07T05:58:59.499Z,95251.29
2018-10-07T06:01:34.010Z,95247.72
2018-10-07T06:04:27.608Z,95253.45
2018-10-07T06:06:57.838Z,95254.13
2018-10-07T06:09:29.523Z,95252.95
2018-10-07T06:11:58.435Z,95259.50
2018-10-07T06:14:38.457Z,95250.87
2018-10-07T06:17:07.329Z,95259.94
2018-10-07T06:19:36.257Z,95258.13
2018-10-07T06:22:05.828Z,95256.59
2018-10-07T06:24:36.977Z,95252.11
2018-10-07T06:27:06.598Z,95254.77
2018-10-07T06:29:36.227Z,95253.80
2018-10-07T06:32:05.499Z,95255.55
2018-10-07T06:34:34.388Z,95252.46
2018-10-07T06:37:03.283Z,95254.62
2018-10-07T06:39:32.555Z,95253.03
2018-10-07T06:42:01.490Z,95251.93
2018-10-07T06:44:30.408Z,95252.05
2018-10-07T06:47:00.326Z,95246.20
2018-10-07T06:49:29.306Z,95245.86
2018-10-07T06:51:58.243Z,95242.88
2018-10-07T06:54:27.055Z,95244.67
2018-10-07T06:56:56.872Z,95249.49
2018-10-07T06:59:25.780Z,95243.80
2018-10-07T07:01:54.973Z,95239.00
2018-10-07T07:04:23.817Z,95234.68
2018-10-07T07:06:52.631Z,95234.07
2018-10-07T07:09:21.469Z,95245.44
2018-10-07T07:11:50.372Z,95240.99
2018-10-07T07:14:19.220Z,95242.00
2018-10-07T07:16:49.808Z,95233.84
2018-10-07T07:19:18.588Z,95236.09
2018-10-07T07:21:47.474Z,95237.80
2018-10-07T07:24:16.322Z,95238.61
2018-10-07T07:26:45.182Z,95240.65
2018-10-07T07:29:14.007Z,95235.81
2018-10-07T07:31:42.855Z,95230.94
2018-10-07T07:34:11.668Z,95231.86
2018-10-07T07:36:41.193Z,95225.47
2018-10-07T07:39:10.329Z,95228.70
2018-10-07T07:41:39.140Z,95226.69
2018-10-07T07:44:08.058Z,95226.38
2018-10-07T07:46:36.883Z,95222.55
2018-10-07T07:49:05.852Z,95221.22
2018-10-07T07:51:34.779Z,95217.05
2018-10-07T07:54:03.600Z,95223.76
2018-10-07T07:56:32.411Z,95219.23
2018-10-07T07:59:01.240Z,95215.88
2018-10-07T08:01:30.063Z,95208.87
2018-10-07T08:03:58.937Z,95205.58
2018-10-07T08:06:27.845Z,95201.42
2018-10-07T08:08:56.902Z,95203.72
2018-10-07T08:11:25.910Z,95203.25
2018-10-07T08:13:54.756Z,95197.23
2018-10-07T08:16:23.595Z,95193.69
2018-10-07T08:18:52.421Z,95197.09
2018-10-07T08:21:21.243Z,95190.19
2018-10-07T08:23:50.142Z,95185.55
2018-10-07T08:26:19.414Z,95184.72
2018-10-07T08:28:48.777Z,95185.78
2018-10-07T08:31:17.581Z,95187.45
2018-10-07T08:33:46.392Z,95189.14
2018-10-07T08:36:15.184Z,95188.06
2018-10-07T08:38:44.049Z,95184.27
2018-10-07T08:41:12.859Z,95177.03
2018-10-07T08:43:41.648Z,95177.03
2018-10-07T08:46:10.466Z,95177.39
2018-10-07T08:48:39.343Z,95165.28
2018-10-07T08:51:08.172Z,95165.52
2018-10-07T08:53:37.242Z,95169.20
2018-10-07T08:56:06.119Z,95164.36
2018-10-07T08:58:35.096Z,95154.63
2018-10-07T09:01:03.989Z,95154.41
2018-10-07T09:03:33.030Z,95156.62
2018-10-07T09:06:01.867Z,95153.69
2018-10-07T09:08:30.798Z,95152.72
2018-10-07T09:10:59.704Z,95152.67
2018-10-07T09:13:28.565Z,95148.13
2018-10-07T09:15:57.509Z,95143.22
2018-10-07T09:18:26.308Z,95134.19
2018-10-07T09:20:55.174Z,95132.89
2018-10-07T09:23:24.173Z,95129.51
2018-10-07T09:25:53.111Z,95132.87
2018-10-07T09:28:22.081Z,95129.03
2018-10-07T09:30:50.915Z,95127.09
2018-10-07T09:33:19.698Z,95123.87
2018-10-07T09:35:48.519Z,95125.73
2018-10-07T09:38:17.477Z,95123.08
2018-10-07T09:40:47.294Z,95116.03
2018-10-07T09:43:16.256Z,95112.33
2018-10-07T09:45:45.082Z,95109.23
2018-10-07T09:48:14.070Z,95097.16
2018-10-07T09:50:42.941Z,95095.28
2018-10-07T09:53:11.753Z,95091.78
2018-10-07T09:55:40.585Z,95092.91
2018-10-07T09:58:09.401Z,95087.36
2018-10-07T10:00:39.608Z,95087.02
2018-10-07T10:03:09.198Z,95083.66
2018-10-07T10:05:38.024Z,95078.50
2018-10-07T10:08:07.153Z,95076.98
2018-10-07T10:10:36.011Z,95070.78
2018-10-07T10:13:05.244Z,95067.87
2018-10-07T10:15:34.100Z,95061.17
2018-10-07T10:18:06.465Z,95064.52
2018-10-07T10:20:44.580Z,95056.48
2018-10-07T10:23:24.492Z,95049.09
2018-10-07T10:26:17.057Z,95049.20
2018-10-07T10:28:51.737Z,95046.34
2018-10-07T10:31:32.963Z,95043.01
2018-10-07T10:34:09.241Z,95043.35
2018-10-07T10:36:48.044Z,95033.58
2018-10-07T10:39:56.429Z,95031.44
2018-10-07T10:42:49.432Z,95028.69
2018-10-07T10:45:38.403Z,95023.98
2018-10-07T10:48:30.177Z,95010.83
2018-10-07T10:51:04.466Z,95006.73
2018-10-07T10:53:42.616Z,95004.97
2018-10-07T10:56:30.888Z,95004.30
2018-10-07T11:01:14.145Z,95006.03
2018-10-07T11:04:58.924Z,94988.55
2018-10-07T11:08:06.154Z,94986.88
2018-10-07T11:10:41.886Z,94975.05
2018-10-07T11:13:19.894Z,94972.39
2018-10-07T11:16:00.485Z,94968.03
2018-10-07T11:19:07.449Z,94962.25
2018-10-07T11:23:50.873Z,94961.30
2018-10-07T11:28:30.749Z,94961.15
2018-10-07T11:31:13.360Z,94960.96
2018-10-07T11:34:30.025Z,94948.86
2018-10-07T11:38:20.752Z,94947.57
2018-10-07T11:41:00.718Z,94946.98
2018-10-07T11:43:39.117Z,94947.86
2018-10-07T11:48:22.194Z,94943.64
2018-10-07T11:51:07.510Z,94925.98
2018-10-07T11:53:40.370Z,94931.87
2018-10-07T11:56:09.213Z,94929.39
2018-10-07T11:58:38.152Z,94926.30
2018-10-07T12:01:07.225Z,94922.59
2018-10-07T12:03:36.510Z,94921.08
2018-10-07T12:06:05.497Z,94912.63
2018-10-07T12:08:34.564Z,94915.66
2018-10-07T12:11:03.573Z,94912.50
2018-10-07T12:13:32.721Z,94913.33
2018-10-07T12:16:01.823Z,94916.85
2018-10-07T12:18:30.924Z,94916.07
2018-10-07T12:20:59.887Z,94900.66
2018-10-07T12:23:28.877Z,94896.39
2018-10-07T12:26:04.484Z,94890.01
2018-10-07T12:28:33.494Z,94887.34
2018-10-07T12:31:02.474Z,94885.27
2018-10-07T12:33:31.480Z,94883.67
2018-10-07T12:36:00.419Z,94877.84
2018-10-07T12:38:29.321Z,94877.36
2018-10-07T12:40:58.365Z,94880.83
2018-10-07T12:43:27.299Z,94870.47
2018-10-07T12:45:56.441Z,94869.69
2018-10-07T12:48:25.414Z,94870.53
2018-10-07T12:50:54.460Z,94864.16
2018-10-07T12:53:23.485Z,94866.34
2018-10-07T12:55:52.540Z,94865.27
2018-10-07T12:58:21.520Z,94864.20
2018-10-07T13:00:50.544Z,94862.09
2018-10-07T13:03:19.535Z,94853.34
2018-10-07T13:05:48.754Z,94854.68
2018-10-07T13:08:17.758Z,94849.63
2018-10-07T13:10:46.729Z,94846.98
2018-10-07T13:13:15.701Z,94850.99
2018-10-07T13:15:44.795Z,94852.05
2018-10-07T13:18:13.766Z,94844.06
2018-10-07T13:20:42.793Z,94846.25
2018-10-07T13:23:11.836Z,94848.37
2018-10-07T13:25:40.793Z,94844.61
2018-10-07T13:28:09.697Z,94838.49
2018-10-07T13:30:38.758Z,94834.77
2018-10-07T13:33:07.699Z,94835.59
2018-10-07T13:35:36.678Z,94829.98
2018-10-07T13:38:05.692Z,94832.38
2018-10-07T13:40:34.594Z,94828.41
2018-10-07T13:43:03.647Z,94831.34
2018-10-07T13:45:32.685Z,94821.22
2018-10-07T13:48:01.776Z,94824.67
2018-10-07T13:50:30.815Z,94829.50
2018-10-07T13:52:59.802Z,94818.55
2018-10-07T13:55:28.991Z,94823.62
2018-10-07T13:57:57.915Z,94812.16
2018-10-07T14:00:26.904Z,94811.10
2018-10-07T14:02:55.864Z,94805.77
2018-10-07T14:05:24.789Z,94804.98
2018-10-07T14:07:53.805Z,94810.33
2018-10-07T14:10:22.777Z,94804.21
2018-10-07T14:12:51.760Z,94806.05
2018-10-07T14:15:20.772Z,94798.35
2018-10-07T14:17:49.725Z,94799.97
2018-10-07T14:20:18.917Z,94802.87
2018-10-07T14:22:48.056Z,94808.48
2018-10-07T14:25:17.111Z,94799.14
2018-10-07T14:27:46.022Z,94798.08
2018-10-07T14:30:15.048Z,94797.83
2018-10-07T14:32:44.014Z,94802.10
2018-10-07T14:35:13.046Z,94802.61
2018-10-07T14:37:42.116Z,94797.55
2018-10-07T14:40:11.076Z,94805.03
2018-10-07T14:42:40.061Z,94801.82
2018-10-07T14:45:09.041Z,94799.97
2018-10-07T14:47:38.062Z,94803.16
2018-10-07T14:50:07.484Z,94806.35
2018-10-07T14:52:36.561Z,94803.41
2018-10-07T14:55:05.732Z,94802.08
2018-10-07T14:57:35.024Z,94805.54
2018-10-07T15:00:06.032Z,94799.16
2018-10-07T15:02:35.130Z,94800.21
2018-10-07T15:05:04.116Z,94796.17
2018-10-07T15:07:33.257Z,94796.71
2018-10-07T15:10:02.261Z,94799.38
2018-10-07T15:12:31.204Z,94802.56
2018-10-07T15:15:00.341Z,94800.95
2018-10-07T15:17:29.332Z,94806.78
2018-10-07T15:19:58.428Z,94797.72
2018-10-07T15:22:27.580Z,94806.72
2018-10-07T15:24:56.574Z,94807.52
2018-10-07T15:27:25.944Z,94812.28
2018-10-07T15:29:54.914Z,94805.02
2018-10-07T15:32:24.197Z,94813.46
2018-10-07T15:34:53.210Z,94817.92
2018-10-07T15:37:22.499Z,94821.58
2018-10-07T15:39:51.601Z,94823.13
2018-10-07T15:42:20.664Z,94825.70
2018-10-07T15:44:49.755Z,94825.07
2018-10-07T15:47:18.833Z,94831.97
2018-10-07T15:49:50.052Z,94826.63
2018-10-07T15:52:19.190Z,94828.45
2018-10-07T15:54:51.164Z,94829.67
2018-10-07T15:57:20.237Z,94828.80
2018-10-07T15:59:49.120Z,94830.26
2018-10-07T16:02:18.059Z,94837.67
2018-10-07T16:04:47.109Z,94838.41
2018-10-07T16:07:16.302Z,94837.05
2018-10-07T16:09:46.057Z,94833.23
2018-10-07T16:12:15.316Z,94840.30
2018-10-07T16:14:44.400Z,94840.91
2018-10-07T16:17:13.375Z,94848.77
2018-10-07T16:19:42.447Z,94849.45
2018-10-07T16:22:11.462Z,94845.34
2018-10-07T16:24:40.364Z,94851.33
2018-10-07T16:27:09.468Z,94856.02
2018-10-07T16:29:38.496Z,94864.45
2018-10-07T16:32:07.639Z,94865.73
2018-10-07T16:34:36.574Z,94863.88
2018-10-07T16:37:05.512Z,94865.41
2018-10-07T16:39:34.738Z,94872.55
2018-10-07T16:42:03.832Z,94876.77
2018-10-07T16:44:32.845Z,94874.83
2018-10-07T16:47:01.893Z,94878.81
2018-10-07T16:49:31.109Z,94887.28
2018-10-07T16:52:00.051Z,94890.12
2018-10-07T16:54:29.165Z,94891.21
2018-10-07T16:56:58.208Z,94891.39
2018-10-07T16:59:27.220Z,94898.69
2018-10-07T17:01:56.234Z,94899.19
2018-10-07T17:04:25.244Z,94901.73
2018-10-07T17:06:54.165Z,94911.25
2018-10-07T17:09:23.165Z,94912.86
2018-10-07T17:11:52.073Z,94915.64
2018-10-07T17:14:21.090Z,94914.84
2018-10-07T17:16:50.308Z,94915.05
2018-10-07T17:19:19.379Z,94916.77
2018-10-07T17:21:48.518Z,94919.58
2018-10-07T17:24:17.628Z,94927.17
2018-10-07T17:26:46.574Z,94930.76
2018-10-07T17:29:15.513Z,94929.28
2018-10-07T17:31:44.461Z,94921.69
2018-10-07T17:34:13.473Z,94926.16
2018-10-07T17:36:42.502Z,94923.16
2018-10-07T17:39:12.187Z,94933.11
2018-10-07T17:41:41.676Z,94932.91
2018-10-07T17:44:10.652Z,94942.03
2018-10-07T17:46:39.744Z,94936.39
2018-10-07T17:49:08.894Z,94942.70
2018-10-07T17:51:37.933Z,94945.28
2018-10-07T17:54:07.020Z,94948.76
2018-10-07T17:56:35.965Z,94948.55
2018-10-07T17:59:05.305Z,94958.14
2018-10-07T18:01:34.319Z,94953.63
2018-10-07T18:04:03.504Z,94956.59
2018-10-07T18:06:32.404Z,94957.30
2018-10-07T18:09:01.382Z,94955.81
2018-10-07T18:11:30.563Z,94963.03
2018-10-07T18:13:59.453Z,94959.98
2018-10-07T18:16:28.421Z,94965.33
2018-10-07T18:18:57.433Z,94968.60
2018-10-07T18:21:26.342Z,94964.79
2018-10-07T18:23:55.409Z,94973.64
2018-10-07T18:26:24.323Z,94970.00
2018-10-07T18:28:53.491Z,94972.09
2018-10-07T18:31:22.416Z,94981.05
2018-10-07T18:33:51.361Z,94977.27
2018-10-07T18:36:20.317Z,94979.54
2018-10-07T18:38:49.319Z,94980.49
2018-10-07T18:41:18.353Z,94987.56
2018-10-07T18:43:47.278Z,94981.84
2018-10-07T18:46:16.208Z,94984.14
2018-10-07T18:48:45.287Z,94987.44
2018-10-07T18:51:14.324Z,94991.63
2018-10-07T18:53:43.319Z,94988.27
2018-10-07T18:56:12.266Z,94998.02
2018-10-07T18:58:41.268Z,94999.27
2018-10-07T19:01:10.208Z,95004.63
2018-10-07T19:03:39.297Z,94996.59
2018-10-07T19:06:08.789Z,95002.59
2018-10-07T19:08:37.820Z,95005.06
2018-10-07T19:11:06.958Z,95008.59
2018-10-07T19:13:35.785Z,95004.05
2018-10-07T19:16:04.662Z,95004.64
2018-10-07T19:18:33.454Z,95009.41
2018-10-07T19:21:02.603Z,95011.02
2018-10-07T19:23:31.488Z,95023.11
2018-10-07T19:26:00.456Z,95018.27
2018-10-07T19:28:29.369Z,95021.36
2018-10-07T19:30:58.188Z,95024.28
2018-10-07T19:33:27.135Z,95022.96
2018-10-07T19:35:56.110Z,95030.37
2018-10-07T19:38:24.993Z,95034.53
2018-10-07T19:40:54.028Z,95034.84
2018-10-07T19:43:22.852Z,95037.22
2018-10-07T19:45:52.093Z,95037.90
2018-10-07T19:48:21.068Z,95037.60
2018-10-07T19:50:49.875Z,95042.28
2018-10-07T19:53:18.672Z,95038.83
2018-10-07T19:55:47.476Z,95038.78
2018-10-07T19:58:16.507Z,95038.18
2018-10-07T20:00:45.340Z,95043.55
2018-10-07T20:03:14.200Z,95039.20
2018-10-07T20:05:43.544Z,95043.67
2018-10-07T20:08:12.345Z,95042.89
2018-10-07T20:10:41.301Z,95048.53
2018-10-07T20:13:10.138Z,95048.53
2018-10-07T20:15:39.081Z,95048.14
2018-10-07T20:18:08.152Z,95050.77
2018-10-07T20:20:37.141Z,95054.08
2018-10-07T20:23:06.152Z,95045.59
2018-10-07T20:25:35.045Z,95052.41
2018-10-07T20:28:04.336Z,95051.80
2018-10-07T20:30:33.147Z,95054.95
2018-10-07T20:33:02.258Z,95061.54
2018-10-07T20:35:31.134Z,95058.09
2018-10-07T20:37:59.989Z,95060.59
2018-10-07T20:40:28.936Z,95059.02
2018-10-07T20:42:57.960Z,95064.23
2018-10-07T20:45:26.863Z,95062.29
2018-10-07T20:47:55.656Z,95057.13
2018-10-07T20:50:25.329Z,95060.84
2018-10-07T20:52:53.676Z,95063.44
2018-10-07T20:55:22.466Z,95069.42
2018-10-07T20:57:51.366Z,95078.59
2018-10-07T21:00:20.199Z,95068.76
2018-10-07T21:02:49.072Z,95079.62
2018-10-07T21:05:18.033Z,95070.54
2018-10-07T21:07:47.010Z,95074.03
2018-10-07T21:10:15.835Z,95070.00
2018-10-07T21:12:44.761Z,95077.53
2018-10-07T21:15:13.625Z,95077.22
2018-10-07T21:17:42.489Z,95080.47
2018-10-07T21:20:11.343Z,95081.83
2018-10-07T21:22:40.223Z,95077.61
2018-10-07T21:25:09.088Z,95072.45
2018-10-07T21:27:37.982Z,95067.92
2018-10-07T21:30:07.865Z,95068.64
2018-10-07T21:32:36.762Z,95069.25
2018-10-07T21:35:05.653Z,95068.95
2018-10-07T21:37:34.659Z,95071.27
2018-10-07T21:40:03.716Z,95072.80
2018-10-07T21:42:32.563Z,95070.16
2018-10-07T21:45:01.461Z,95065.94
2018-10-07T21:47:30.452Z,95073.97
2018-10-07T21:49:59.292Z,95075.98
2018-10-07T21:52:28.297Z,95072.78
2018-10-07T21:54:57.238Z,95075.20
2018-10-07T21:57:26.140Z,95073.61
2018-10-07T21:59:55.024Z,95074.52
2018-10-07T22:02:23.804Z,95068.55
2018-10-07T22:04:52.604Z,95066.02
2018-10-07T22:07:21.804Z,95066.74
2018-10-07T22:09:50.691Z,95061.88
2018-10-07T22:12:19.558Z,95059.18
2018-10-07T22:14:48.385Z,95056.03
2018-10-07T22:17:17.187Z,95054.41
2018-10-07T22:19:46.137Z,95059.70
2018-10-07T22:22:15.189Z,95057.99
2018-10-07T22:24:44.708Z,95052.73
2018-10-07T22:27:13.620Z,95049.80
2018-10-07T22:29:42.515Z,95046.05
2018-10-07T22:32:11.337Z,95045.95
2018-10-07T22:34:40.187Z,95053.33
2018-10-07T22:37:09.092Z,95054.23
2018-10-07T22:39:37.892Z,95063.05
2018-10-07T22:42:06.724Z,95062.45
2018-10-07T22:44:35.667Z,95062.75
2018-10-07T22:47:04.620Z,95069.83
2018-10-07T22:49:33.596Z,95072.66
2018-10-07T22:52:02.506Z,95070.52
2018-10-07T22:54:31.362Z,95069.63
2018-10-07T22:57:00.224Z,95073.77
2018-10-07T22:59:29.046Z,95071.64
2018-10-07T23:01:58.008Z,95065.17
2018-10-07T23:04:26.912Z,95057.38
2018-10-07T23:06:55.785Z,95062.03
2018-10-07T23:09:24.730Z,95062.05
2018-10-07T23:11:53.537Z,95060.23
2018-10-07T23:14:22.476Z,95062.34
2018-10-07T23:16:51.496Z,95059.81
2018-10-07T23:19:20.379Z,95054.87
2018-10-07T23:21:49.376Z,95057.08
2018-10-07T23:24:18.191Z,95060.71
2018-10-07T23:26:47.897Z,95055.88
2018-10-07T23:29:16.795Z,95056.38
2018-10-07T23:31:45.644Z,95053.95
2018-10-07T23:34:14.583Z,95054.25
2018-10-07T23:36:43.471Z,95053.36
2018-10-07T23:39:12.812Z,95050.00
2018-10-07T23:41:41.808Z,95052.94
2018-10-07T23:44:10.583Z,95050.81
2018-10-07T23:46:39.360Z,95052.64
2018-10-07T23:49:08.717Z,95051.83
2018-10-07T23:51:37.705Z,95051.09
2018-10-07T23:54:06.748Z,95047.27
2018-10-07T23:56:35.587Z,95051.27
2018-10-07T23:59:04.391Z,95044.70
